createdAt,value
2022-08-26T00:02:12.683Z,25.08
2022-08-26T00:04:41.134Z,24.95
2022-08-26T00:07:09.050Z,25.12
2022-08-26T00:09:37.285Z,25.22
2022-08-26T00:12:09.557Z,24.95
2022-08-26T00:14:40.454Z,25.01
2022-08-26T00:17:08.768Z,25.23
2022-08-26T00:19:37.352Z,25.07
2022-08-26T00:22:06.023Z,25.27
2022-08-26T00:24:34.442Z,25.03
2022-08-26T00:27:02.359Z,25.23
2022-08-26T00:29:32.041Z,24.98
2022-08-26T00:32:06.564Z,24.70
2022-08-26T00:34:34.832Z,25.15
2022-08-26T00:37:02.662Z,25.25
2022-08-26T00:39:32.160Z,25.20
2022-08-26T00:42:00.536Z,25.15
2022-08-26T00:44:28.241Z,25.27
2022-08-26T00:47:02.772Z,25.12
2022-08-26T00:49:43.829Z,24.91
2022-08-26T00:52:19.728Z,24.56
2022-08-26T00:54:56.609Z,24.45
2022-08-26T00:57:25.532Z,24.49
2022-08-26T00:59:58.455Z,24.61
2022-08-26T01:02:27.224Z,24.82
2022-08-26T01:05:00.827Z,24.48
2022-08-26T01:07:32.669Z,24.40
2022-08-26T01:10:06.758Z,24.11
2022-08-26T01:12:42.490Z,24.34
2022-08-26T01:15:15.488Z,24.16
2022-08-26T01:17:43.875Z,24.15
2022-08-26T01:20:31.990Z,24.12
2022-08-26T01:23:03.393Z,24.00
2022-08-26T01:25:34.336Z,23.85
2022-08-26T01:28:06.549Z,23.83
2022-08-26T01:30:35.729Z,23.77
2022-08-26T01:33:06.893Z,23.87
2022-08-26T01:35:34.843Z,23.83
2022-08-26T01:38:04.189Z,23.77
2022-08-26T01:40:37.316Z,23.33
2022-08-26T01:43:09.662Z,23.73
2022-08-26T01:45:40.581Z,23.58
2022-08-26T01:48:14.553Z,23.76
2022-08-26T01:50:45.151Z,23.93
2022-08-26T01:53:17.145Z,23.89
2022-08-26T01:55:49.133Z,24.09
2022-08-26T01:58:22.836Z,24.00
2022-08-26T02:00:52.287Z,24.10
2022-08-26T02:03:22.370Z,24.12
2022-08-26T02:06:00.700Z,23.94
2022-08-26T02:08:36.005Z,23.49
2022-08-26T02:11:04.793Z,23.66
2022-08-26T02:13:38.153Z,23.56
2022-08-26T02:16:08.402Z,23.44
2022-08-26T02:18:40.280Z,23.31
2022-08-26T02:21:10.102Z,23.49
2022-08-26T02:23:38.224Z,23.23
2022-08-26T02:26:17.932Z,23.36
2022-08-26T02:29:27.603Z,23.30
2022-08-26T02:31:56.010Z,23.08
2022-08-26T02:34:32.007Z,23.13
2022-08-26T02:37:02.358Z,23.46
2022-08-26T02:39:32.695Z,23.45
2022-08-26T02:42:00.548Z,23.28
2022-08-26T02:44:29.091Z,23.62
2022-08-26T02:46:57.500Z,23.26
2022-08-26T02:49:26.978Z,23.45
2022-08-26T02:51:54.680Z,23.48
2022-08-26T02:54:22.999Z,23.51
2022-08-26T02:56:51.526Z,23.14
2022-08-26T02:59:19.254Z,23.41
2022-08-26T03:01:55.926Z,23.10
2022-08-26T03:04:25.886Z,23.19
2022-08-26T03:06:55.592Z,23.11
2022-08-26T03:09:24.458Z,22.69
2022-08-26T03:11:52.414Z,22.81
2022-08-26T03:14:21.013Z,22.83
2022-08-26T03:16:50.946Z,23.24
2022-08-26T03:19:19.175Z,23.23
2022-08-26T03:21:47.962Z,22.94
2022-08-26T03:24:17.612Z,23.30
2022-08-26T03:26:52.743Z,23.18
2022-08-26T03:29:41.669Z,23.15
2022-08-26T03:32:10.073Z,23.42
2022-08-26T03:34:38.744Z,23.12
2022-08-26T03:37:06.578Z,22.82
2022-08-26T03:39:34.679Z,22.93
2022-08-26T03:42:02.703Z,23.07
2022-08-26T03:44:30.545Z,23.03
2022-08-26T03:46:58.275Z,23.07
2022-08-26T03:49:28.892Z,23.06
2022-08-26T03:51:56.729Z,22.70
2022-08-26T03:54:24.531Z,22.83
2022-08-26T03:56:52.776Z,22.83
2022-08-26T03:59:21.014Z,22.89
2022-08-26T04:01:49.006Z,22.70
2022-08-26T04:04:17.284Z,22.85
2022-08-26T04:06:45.192Z,22.74
2022-08-26T04:09:20.894Z,22.72
2022-08-26T04:11:50.733Z,22.88
2022-08-26T04:14:22.668Z,22.86
2022-08-26T04:16:52.235Z,22.61
2022-08-26T04:19:21.176Z,22.89
2022-08-26T04:21:53.282Z,22.88
2022-08-26T04:24:24.654Z,22.81
2022-08-26T04:26:52.867Z,22.90
2022-08-26T04:29:26.368Z,22.88
2022-08-26T04:31:55.965Z,22.91
2022-08-26T04:34:27.268Z,22.96
2022-08-26T04:36:57.749Z,23.13
2022-08-26T04:39:27.691Z,23.29
2022-08-26T04:41:57.870Z,23.16
2022-08-26T04:44:29.185Z,23.34
2022-08-26T04:46:58.562Z,23.34
2022-08-26T04:49:27.656Z,23.19
2022-08-26T04:51:55.397Z,23.29
2022-08-26T04:54:23.754Z,23.53
2022-08-26T04:56:54.245Z,23.66
2022-08-26T04:59:22.030Z,23.80
2022-08-26T05:01:53.303Z,23.87
2022-08-26T05:04:21.475Z,23.88
2022-08-26T05:06:50.111Z,23.96
2022-08-26T05:09:21.486Z,24.04
2022-08-26T05:11:52.158Z,24.21
2022-08-26T05:14:20.433Z,24.18
2022-08-26T05:16:48.095Z,24.13
2022-08-26T05:19:19.194Z,24.44
2022-08-26T05:21:48.727Z,24.45
2022-08-26T05:24:17.829Z,24.62
2022-08-26T05:26:47.280Z,24.57
2022-08-26T05:29:17.043Z,24.93
2022-08-26T05:31:44.713Z,24.92
2022-08-26T05:34:13.139Z,25.12
2022-08-26T05:36:41.294Z,25.15
2022-08-26T05:39:10.611Z,25.17
2022-08-26T05:41:41.355Z,25.26
2022-08-26T05:44:11.093Z,25.32
2022-08-26T05:46:40.424Z,25.23
2022-08-26T05:49:12.520Z,25.34
2022-08-26T05:51:45.244Z,25.44
2022-08-26T05:54:14.941Z,25.62
2022-08-26T05:56:53.269Z,25.65
2022-08-26T05:59:24.214Z,25.89
2022-08-26T06:01:55.202Z,26.04
2022-08-26T06:04:28.393Z,26.15
2022-08-26T06:06:58.262Z,26.23
2022-08-26T06:09:26.993Z,26.39
2022-08-26T06:11:55.987Z,26.50
2022-08-26T06:14:23.818Z,26.58
2022-08-26T06:16:52.062Z,26.70
2022-08-26T06:19:21.645Z,26.71
2022-08-26T06:21:53.988Z,26.88
2022-08-26T06:24:41.520Z,26.93
2022-08-26T06:27:13.772Z,27.07
2022-08-26T06:29:41.962Z,27.17
2022-08-26T06:32:09.663Z,27.37
2022-08-26T06:34:37.495Z,27.23
2022-08-26T06:37:06.248Z,27.46
2022-08-26T06:39:34.446Z,27.78
2022-08-26T06:42:06.080Z,27.99
2022-08-26T06:44:34.839Z,27.96
2022-08-26T06:47:02.592Z,28.05
2022-08-26T06:49:30.430Z,28.26
2022-08-26T06:51:58.932Z,28.36
2022-08-26T06:54:32.254Z,28.57
2022-08-26T06:57:01.200Z,28.20
2022-08-26T06:59:31.247Z,28.14
2022-08-26T07:01:59.165Z,28.63
2022-08-26T07:04:28.137Z,28.93
2022-08-26T07:06:56.570Z,28.89
2022-08-26T07:09:28.179Z,29.05
2022-08-26T07:11:56.679Z,29.05
2022-08-26T07:14:26.178Z,29.31
2022-08-26T07:16:54.972Z,29.46
2022-08-26T07:19:30.386Z,29.59
2022-08-26T07:22:02.277Z,29.05
2022-08-26T07:24:33.433Z,29.19
2022-08-26T07:27:06.416Z,29.64
2022-08-26T07:29:36.198Z,29.93
2022-08-26T07:32:05.233Z,29.64
2022-08-26T07:34:33.481Z,29.84
2022-08-26T07:37:02.003Z,30.15
2022-08-26T07:39:31.438Z,30.13
2022-08-26T07:42:08.038Z,29.96
2022-08-26T07:44:37.634Z,30.40
2022-08-26T07:47:24.041Z,30.56
2022-08-26T07:49:56.201Z,30.61
2022-08-26T07:52:27.201Z,30.19
2022-08-26T07:55:01.452Z,30.85
2022-08-26T07:57:30.495Z,30.78
2022-08-26T07:59:59.793Z,30.99
2022-08-26T08:02:29.421Z,31.13
2022-08-26T08:04:58.531Z,31.04
2022-08-26T08:07:45.107Z,31.35
2022-08-26T08:10:17.717Z,31.32
2022-08-26T08:12:47.096Z,31.32
2022-08-26T08:15:17.117Z,31.31
2022-08-26T08:17:44.880Z,31.63
2022-08-26T08:20:14.575Z,31.98
2022-08-26T08:22:43.260Z,31.83
2022-08-26T08:25:12.471Z,31.94
2022-08-26T08:27:42.230Z,32.16
2022-08-26T08:30:10.926Z,32.16
2022-08-26T08:32:43.796Z,32.41
2022-08-26T08:35:17.284Z,32.07
2022-08-26T08:37:45.478Z,32.59
2022-08-26T08:40:19.028Z,32.52
2022-08-26T08:43:11.400Z,32.61
2022-08-26T08:45:57.920Z,32.85
2022-08-26T08:48:51.361Z,33.15
2022-08-26T08:51:46.013Z,32.76
2022-08-26T08:54:14.540Z,33.11
2022-08-26T08:56:50.014Z,33.34
2022-08-26T08:59:32.888Z,33.29
2022-08-26T09:02:21.371Z,32.86
2022-08-26T09:05:25.190Z,33.51
2022-08-26T09:08:02.664Z,32.59
2022-08-26T09:10:30.335Z,32.46
2022-08-26T09:13:00.073Z,33.32
2022-08-26T09:15:49.850Z,33.37
2022-08-26T09:18:46.174Z,33.57
2022-08-26T09:21:17.922Z,33.73
2022-08-26T09:23:49.690Z,34.03
2022-08-26T09:26:28.740Z,34.00
2022-08-26T09:29:04.154Z,34.11
2022-08-26T09:31:37.696Z,34.07
2022-08-26T09:34:17.882Z,34.11
2022-08-26T09:36:53.509Z,33.68
2022-08-26T09:39:28.011Z,33.77
2022-08-26T09:42:03.566Z,34.27
2022-08-26T09:44:31.873Z,34.46
2022-08-26T09:47:05.237Z,34.43
2022-08-26T09:49:39.189Z,34.60
2022-08-26T09:52:14.736Z,34.22
2022-08-26T09:54:46.036Z,34.41
2022-08-26T09:57:16.797Z,34.40
2022-08-26T09:59:45.397Z,34.32
2022-08-26T10:02:34.060Z,34.04
2022-08-26T10:05:09.659Z,34.61
2022-08-26T10:07:51.075Z,34.64
2022-08-26T10:10:25.177Z,34.86
2022-08-26T10:13:03.483Z,34.76
2022-08-26T10:15:41.799Z,34.83
2022-08-26T10:18:30.727Z,35.13
2022-08-26T10:21:07.744Z,34.86
2022-08-26T10:23:43.526Z,34.87
2022-08-26T10:26:19.424Z,34.72
2022-08-26T10:28:52.756Z,34.64
2022-08-26T10:31:27.739Z,34.64
2022-08-26T10:33:58.879Z,34.69
2022-08-26T10:37:15.065Z,35.00
2022-08-26T10:39:42.715Z,34.69
2022-08-26T10:42:22.275Z,34.89
2022-08-26T10:44:58.679Z,34.84
2022-08-26T10:48:01.309Z,35.12
2022-08-26T10:50:41.614Z,34.97
2022-08-26T10:53:34.633Z,34.79
2022-08-26T10:56:06.296Z,35.10
2022-08-26T10:59:00.380Z,35.47
2022-08-26T11:01:47.149Z,35.38
2022-08-26T11:04:34.980Z,35.50
2022-08-26T11:07:41.937Z,35.39
2022-08-26T11:10:22.624Z,35.44
2022-08-26T11:13:03.617Z,35.47
2022-08-26T11:15:32.369Z,35.47
2022-08-26T11:18:08.075Z,35.33
2022-08-26T11:20:41.952Z,34.92
2022-08-26T11:23:13.084Z,35.00
2022-08-26T11:25:57.154Z,34.78
2022-08-26T11:28:44.905Z,35.14
2022-08-26T11:31:19.119Z,35.10
2022-08-26T11:33:51.061Z,35.27
2022-08-26T11:36:37.776Z,34.80
2022-08-26T11:39:36.941Z,34.58
2022-08-26T11:42:28.612Z,34.53
2022-08-26T11:44:58.254Z,34.89
2022-08-26T11:47:32.331Z,35.07
2022-08-26T11:50:23.547Z,34.74
2022-08-26T11:53:06.399Z,35.24
2022-08-26T11:55:43.622Z,34.22
2022-08-26T11:58:14.487Z,35.01
2022-08-26T12:01:00.492Z,34.79
2022-08-26T12:03:40.361Z,35.15
2022-08-26T12:06:23.339Z,34.82
2022-08-26T12:08:53.689Z,35.06
2022-08-26T12:11:24.897Z,34.84
2022-08-26T12:13:57.620Z,35.06
2022-08-26T12:16:27.934Z,34.55
2022-08-26T12:18:56.093Z,34.80
2022-08-26T12:21:29.741Z,34.49
2022-08-26T12:24:04.123Z,34.47
2022-08-26T12:26:35.898Z,34.75
2022-08-26T12:29:20.363Z,34.92
2022-08-26T12:32:17.771Z,34.67
2022-08-26T12:34:49.162Z,35.02
2022-08-26T12:37:18.887Z,35.32
2022-08-26T12:39:49.113Z,35.18
2022-08-26T12:42:19.924Z,35.40
2022-08-26T12:45:06.678Z,35.41
2022-08-26T12:47:44.111Z,35.22
2022-08-26T12:50:23.913Z,35.40
2022-08-26T12:53:00.730Z,35.38
2022-08-26T12:55:31.717Z,35.31
2022-08-26T12:58:18.514Z,35.07
2022-08-26T13:00:50.470Z,35.12
2022-08-26T13:03:46.094Z,35.02
2022-08-26T13:06:23.317Z,34.93
2022-08-26T13:08:54.463Z,34.88
2022-08-26T13:11:40.768Z,34.72
2022-08-26T13:14:21.121Z,35.02
2022-08-26T13:16:53.601Z,35.05
2022-08-26T13:19:24.129Z,34.97
2022-08-26T13:22:01.570Z,35.27
2022-08-26T13:24:35.220Z,34.92
2022-08-26T13:27:05.147Z,35.16
2022-08-26T13:29:33.060Z,34.76
2022-08-26T13:32:01.454Z,34.79
2022-08-26T13:34:30.388Z,34.92
2022-08-26T13:36:58.551Z,34.76
2022-08-26T13:39:27.014Z,34.82
2022-08-26T13:41:55.061Z,34.82
2022-08-26T13:44:22.843Z,34.97
2022-08-26T13:46:50.535Z,34.89
2022-08-26T13:49:18.453Z,34.81
2022-08-26T13:51:46.197Z,35.02
2022-08-26T13:54:13.917Z,34.99
2022-08-26T13:56:41.865Z,34.94
2022-08-26T13:59:10.046Z,35.01
2022-08-26T14:01:39.883Z,34.76
2022-08-26T14:04:11.519Z,34.85
2022-08-26T14:06:39.205Z,34.66
2022-08-26T14:09:06.913Z,34.49
2022-08-26T14:11:41.235Z,34.24
2022-08-26T14:14:22.049Z,34.14
2022-08-26T14:16:58.928Z,34.17
2022-08-26T14:19:30.053Z,33.96
2022-08-26T14:22:00.816Z,34.24
2022-08-26T14:24:29.318Z,34.14
2022-08-26T14:26:57.083Z,34.10
2022-08-26T14:29:25.099Z,34.11
2022-08-26T14:31:54.102Z,34.09
2022-08-26T14:34:21.894Z,33.92
2022-08-26T14:36:49.859Z,33.94
2022-08-26T14:39:17.535Z,33.86
2022-08-26T14:41:56.420Z,33.65
2022-08-26T14:44:28.210Z,33.47
2022-08-26T14:46:56.390Z,33.60
2022-08-26T14:49:27.337Z,33.42
2022-08-26T14:51:55.715Z,33.37
2022-08-26T14:54:23.476Z,33.62
2022-08-26T14:57:00.468Z,33.27
2022-08-26T14:59:31.988Z,33.55
2022-08-26T15:02:00.932Z,33.51
2022-08-26T15:04:28.817Z,33.59
2022-08-26T15:06:59.003Z,33.68
2022-08-26T15:09:29.454Z,33.42
2022-08-26T15:11:57.675Z,33.24
2022-08-26T15:14:27.653Z,33.27
2022-08-26T15:17:00.654Z,33.20
2022-08-26T15:19:28.623Z,33.15
2022-08-26T15:21:56.513Z,33.12
2022-08-26T15:24:26.286Z,33.02
2022-08-26T15:26:54.367Z,33.16
2022-08-26T15:29:24.004Z,33.14
2022-08-26T15:31:51.920Z,33.00
2022-08-26T15:34:22.973Z,33.12
2022-08-26T15:36:50.713Z,33.18
2022-08-26T15:39:19.721Z,33.48
2022-08-26T15:41:47.660Z,33.39
2022-08-26T15:44:17.024Z,33.38
2022-08-26T15:46:45.364Z,32.98
2022-08-26T15:49:18.458Z,33.21
2022-08-26T15:51:50.465Z,33.24
2022-08-26T15:54:22.364Z,33.00
2022-08-26T15:56:52.553Z,32.86
2022-08-26T15:59:21.795Z,32.64
2022-08-26T16:01:49.875Z,32.72
2022-08-26T16:04:18.762Z,32.75
2022-08-26T16:06:50.243Z,32.89
2022-08-26T16:09:24.338Z,32.46
2022-08-26T16:11:56.997Z,32.52
2022-08-26T16:14:26.609Z,32.68
2022-08-26T16:16:58.015Z,32.79
2022-08-26T16:19:27.589Z,32.80
2022-08-26T16:21:55.321Z,32.45
2022-08-26T16:24:27.177Z,32.45
2022-08-26T16:26:58.363Z,32.46
2022-08-26T16:29:26.704Z,32.30
2022-08-26T16:31:54.836Z,32.27
2022-08-26T16:34:23.040Z,32.37
2022-08-26T16:36:51.053Z,32.36
2022-08-26T16:39:18.719Z,32.31
2022-08-26T16:41:46.796Z,32.27
2022-08-26T16:44:14.557Z,32.14
2022-08-26T16:46:42.434Z,32.09
2022-08-26T16:49:10.487Z,32.06
2022-08-26T16:51:38.578Z,32.17
2022-08-26T16:54:07.880Z,32.04
2022-08-26T16:56:37.100Z,31.95
2022-08-26T16:59:07.765Z,31.83
2022-08-26T17:01:35.656Z,31.87
2022-08-26T17:04:03.964Z,31.65
2022-08-26T17:06:31.714Z,31.60
2022-08-26T17:09:00.598Z,31.65
2022-08-26T17:11:28.624Z,31.74
2022-08-26T17:13:56.983Z,31.64
2022-08-26T17:16:27.031Z,31.47
2022-08-26T17:18:56.875Z,31.48
2022-08-26T17:21:26.067Z,31.30
2022-08-26T17:23:54.211Z,31.31
2022-08-26T17:26:22.639Z,31.44
2022-08-26T17:28:51.204Z,31.34
2022-08-26T17:31:19.558Z,31.29
2022-08-26T17:33:53.250Z,31.22
2022-08-26T17:36:28.116Z,31.01
2022-08-26T17:38:57.584Z,30.61
2022-08-26T17:41:25.909Z,30.63
2022-08-26T17:43:53.669Z,30.52
2022-08-26T17:46:22.187Z,30.50
2022-08-26T17:48:49.971Z,30.45
2022-08-26T17:51:19.515Z,30.37
2022-08-26T17:53:48.659Z,29.97
2022-08-26T17:56:19.095Z,29.85
2022-08-26T17:58:48.052Z,29.78
2022-08-26T18:01:26.191Z,29.77
2022-08-26T18:04:00.126Z,29.54
2022-08-26T18:06:30.650Z,29.66
2022-08-26T18:08:59.899Z,29.47
2022-08-26T18:11:33.690Z,29.52
2022-08-26T18:14:02.184Z,29.22
2022-08-26T18:16:31.743Z,28.95
2022-08-26T18:18:59.909Z,29.48
2022-08-26T18:21:28.110Z,29.17
2022-08-26T18:23:56.540Z,29.28
2022-08-26T18:26:30.087Z,28.78
2022-08-26T18:28:58.834Z,28.81
2022-08-26T18:31:27.221Z,29.04
2022-08-26T18:33:55.231Z,28.55
2022-08-26T18:36:26.887Z,29.04
2022-08-26T18:38:55.634Z,28.56
2022-08-26T18:41:25.966Z,28.14
2022-08-26T18:43:54.160Z,28.35
2022-08-26T18:46:27.100Z,28.13
2022-08-26T18:48:57.097Z,28.34
2022-08-26T18:51:29.661Z,28.11
2022-08-26T18:53:59.674Z,27.82
2022-08-26T18:56:28.577Z,27.90
2022-08-26T18:58:56.295Z,28.33
2022-08-26T19:01:27.387Z,27.89
2022-08-26T19:03:57.686Z,27.98
2022-08-26T19:06:26.119Z,27.80
2022-08-26T19:08:53.986Z,27.27
2022-08-26T19:11:32.135Z,27.38
2022-08-26T19:14:02.450Z,27.07
2022-08-26T19:16:30.867Z,27.30
2022-08-26T19:19:00.710Z,27.34
2022-08-26T19:21:29.857Z,26.99
2022-08-26T19:23:59.275Z,27.01
2022-08-26T19:26:29.348Z,27.28
2022-08-26T19:28:57.447Z,26.96
2022-08-26T19:31:25.290Z,26.89
2022-08-26T19:33:53.094Z,26.80
2022-08-26T19:36:24.871Z,26.94
2022-08-26T19:38:53.594Z,26.74
2022-08-26T19:41:34.158Z,26.75
2022-08-26T19:44:11.189Z,26.70
2022-08-26T19:49:12.193Z,26.65
2022-08-26T19:51:40.343Z,26.83
2022-08-26T19:54:08.139Z,26.93
2022-08-26T19:56:36.609Z,26.69
2022-08-26T19:59:04.737Z,26.43
2022-08-26T20:01:32.487Z,26.36
2022-08-26T20:04:00.831Z,26.51
2022-08-26T20:06:28.627Z,27.03
2022-08-26T20:08:56.474Z,26.96
2022-08-26T20:11:24.600Z,26.56
2022-08-26T20:13:52.340Z,26.86
2022-08-26T20:16:20.123Z,26.40
2022-08-26T20:19:06.983Z,26.52
2022-08-26T20:21:38.207Z,26.10
2022-08-26T20:24:12.682Z,25.85
2022-08-26T20:26:46.141Z,26.28
2022-08-26T20:29:17.306Z,26.19
2022-08-26T20:31:46.622Z,26.23
2022-08-26T20:34:18.520Z,26.08
2022-08-26T20:36:47.862Z,25.87
2022-08-26T20:39:17.948Z,26.04
2022-08-26T20:41:45.735Z,25.99
2022-08-26T20:44:13.916Z,26.11
2022-08-26T20:46:42.040Z,26.34
2022-08-26T20:49:10.058Z,25.89
2022-08-26T20:51:37.818Z,26.14
2022-08-26T20:54:07.122Z,25.67
2022-08-26T20:56:35.688Z,25.64
2022-08-26T20:59:05.400Z,25.79
2022-08-26T21:01:36.180Z,25.51
2022-08-26T21:04:04.887Z,25.40
2022-08-26T21:06:34.031Z,25.41
2022-08-26T21:09:03.615Z,25.34
2022-08-26T21:11:32.096Z,25.57
2022-08-26T21:14:06.780Z,25.20
2022-08-26T21:16:44.767Z,25.69
2022-08-26T21:19:15.057Z,25.76
2022-08-26T21:21:43.171Z,25.43
2022-08-26T21:24:10.995Z,25.21
2022-08-26T21:26:39.378Z,25.34
2022-08-26T21:29:09.891Z,25.36
2022-08-26T21:31:44.901Z,25.40
2022-08-26T21:34:18.732Z,25.18
2022-08-26T21:36:47.978Z,25.83
2022-08-26T21:39:16.444Z,25.56
2022-08-26T21:41:45.439Z,25.68
2022-08-26T21:44:15.386Z,25.66
2022-08-26T21:46:45.169Z,25.20
2022-08-26T21:49:15.749Z,25.10
2022-08-26T21:51:46.437Z,25.70
2022-08-26T21:54:14.320Z,25.01
2022-08-26T21:56:47.154Z,25.35
2022-08-26T21:59:18.078Z,25.50
2022-08-26T22:01:46.279Z,25.58
2022-08-26T22:04:14.835Z,25.64
2022-08-26T22:06:48.848Z,25.17
2022-08-26T22:09:21.625Z,24.95
2022-08-26T22:11:50.201Z,24.43
2022-08-26T22:14:22.078Z,25.26
2022-08-26T22:16:50.990Z,24.65
2022-08-26T22:19:20.638Z,24.97
2022-08-26T22:21:53.898Z,25.10
2022-08-26T22:24:24.194Z,25.03
2022-08-26T22:26:52.619Z,24.38
2022-08-26T22:29:20.914Z,24.57
2022-08-26T22:31:49.064Z,24.47
2022-08-26T22:34:17.529Z,24.75
2022-08-26T22:36:47.314Z,24.68
2022-08-26T22:39:19.366Z,24.76
2022-08-26T22:41:48.589Z,24.84
2022-08-26T22:44:18.453Z,24.57
2022-08-26T22:46:47.447Z,24.58
2022-08-26T22:49:16.498Z,24.97
2022-08-26T22:51:46.294Z,24.52
2022-08-26T22:54:14.961Z,25.05
2022-08-26T22:56:44.852Z,24.38
2022-08-26T22:59:13.202Z,24.72
2022-08-26T23:01:42.992Z,25.01
2022-08-26T23:04:11.592Z,24.79
2022-08-26T23:06:42.680Z,25.02
2022-08-26T23:09:10.876Z,24.28
2022-08-26T23:11:42.983Z,24.72
2022-08-26T23:14:11.295Z,24.98
2022-08-26T23:16:41.972Z,24.78
2022-08-26T23:19:11.536Z,24.38
2022-08-26T23:21:40.425Z,24.20
2022-08-26T23:24:09.593Z,24.42
2022-08-26T23:26:39.140Z,24.27
2022-08-26T23:29:09.424Z,24.23
2022-08-26T23:31:39.042Z,24.48
2022-08-26T23:34:26.098Z,24.23
2022-08-26T23:36:57.035Z,24.44
2022-08-26T23:39:25.759Z,24.47
2022-08-26T23:41:53.503Z,24.22
2022-08-26T23:44:21.327Z,23.99
2022-08-26T23:46:49.380Z,23.95
2022-08-26T23:49:17.082Z,24.35
2022-08-26T23:52:03.710Z,24.00
2022-08-26T23:54:32.783Z,23.94
2022-08-26T23:57:00.659Z,24.09
2022-08-26T23:59:28.464Z,24.08
